KBFF/BFF METAR and TAF weather

Enter ICAO airport designator
Station Type Date Time Source
KBFF METAR 2022/08/12 13:53 UTC NOAA

KBFF 121353Z AUTO 00000KT 10SM CLR 23/12 A3017 RMK AO2 SLP163 T02330117


Station Type Date Time Source
KBFF Decoded METAR 2022/08/12 13:53 UTC NOAA

SCOTTSBLUFF HEILIG FIELD, NE, United States (KBFF) 41-52N 103-36W 1203M
Aug 12, 2022 - 09:53 AM EDT / 2022.08.12 1353 UTC
Wind: Calm:0
Visibility: 10 mile(s):0
Sky conditions: clear
Temperature: 73.9 F (23.3 C)
Dew Point: 53.1 F (11.7 C)
Relative Humidity: 48%
Pressure (altimeter): 30.17 in. Hg (1021 hPa)
ob: KBFF 121353Z AUTO 00000KT 10SM CLR 23/12 A3017 RMK AO2 SLP163 T02330117
cycle: 14

Station Type Date Time Source
KBFF TAF 2022/08/12 12:22 UTC NOAA

TAF KBFF 121120Z 1212/1312 10005KT P6SM BKN200
FM121800 09010KT P6SM SCT100 BKN200
FM130300 36008KT P6SM VCSH BKN100
FM130600 VRB05KT P6SM SCT250

Example: see airport list